createdAt,value
2022-11-29T00:02:29.183Z,101073.53
2022-11-29T00:07:30.753Z,101080.44
2022-11-29T00:12:32.130Z,101080.50
2022-11-29T00:17:33.576Z,101076.97
2022-11-29T00:22:35.140Z,101077.06
2022-11-29T00:27:36.723Z,101065.06
2022-11-29T00:32:38.233Z,101080.38
2022-11-29T00:37:39.751Z,101082.91
2022-11-29T00:42:41.187Z,101077.66
2022-11-29T00:47:42.622Z,101086.25
2022-11-29T00:52:44.027Z,101086.25
2022-11-29T00:57:45.428Z,101085.44
2022-11-29T01:02:46.934Z,101089.69
2022-11-29T01:07:48.447Z,101092.34
2022-11-29T01:12:50.029Z,101090.59
2022-11-29T01:17:51.451Z,101106.75
2022-11-29T01:22:53.159Z,101099.97
2022-11-29T01:27:54.630Z,101105.03
2022-11-29T01:32:56.025Z,101111.97
2022-11-29T01:37:57.408Z,101114.47
2022-11-29T01:42:58.763Z,101111.06
2022-11-29T01:48:00.966Z,101117.19
2022-11-29T01:53:03.452Z,101126.59
2022-11-29T01:58:07.986Z,101129.09
2022-11-29T02:03:15.178Z,101127.47
2022-11-29T02:08:23.514Z,101136.09
2022-11-29T02:13:40.014Z,101133.56
2022-11-29T02:19:42.893Z,101140.44
2022-11-29T02:25:03.433Z,101136.97
2022-11-29T02:30:35.635Z,101138.72
2022-11-29T02:35:58.430Z,101140.47
2022-11-29T02:41:19.702Z,101140.47
2022-11-29T02:46:35.346Z,101143.03
2022-11-29T02:51:47.943Z,101142.25
2022-11-29T02:57:07.363Z,101149.09
2022-11-29T03:02:23.360Z,101145.63
2022-11-29T03:07:37.508Z,101143.94
2022-11-29T03:12:46.211Z,101146.28
2022-11-29T03:18:16.803Z,101153.19
2022-11-29T03:23:37.498Z,101160.06
2022-11-29T03:29:07.056Z,101170.34
2022-11-29T03:34:43.854Z,101171.97
2022-11-29T03:40:04.691Z,101183.13
2022-11-29T03:45:16.360Z,101188.22
2022-11-29T03:50:23.365Z,101187.41
2022-11-29T03:55:33.047Z,101185.59
2022-11-29T04:01:01.452Z,101194.94
2022-11-29T04:06:36.935Z,101198.31
2022-11-29T04:12:07.947Z,101203.31
2022-11-29T04:17:40.445Z,101203.22
2022-11-29T04:23:17.556Z,101213.47
2022-11-29T04:28:18.889Z,101214.22
2022-11-29T04:33:41.105Z,101210.56
2022-11-29T04:39:13.544Z,101224.28
2022-11-29T04:44:23.636Z,101237.94
2022-11-29T04:49:52.832Z,101226.81
2022-11-29T04:55:04.524Z,101242.13
2022-11-29T05:00:11.295Z,101248.97
2022-11-29T05:05:24.833Z,101247.34
2022-11-29T05:10:39.233Z,101257.69
2022-11-29T05:16:18.241Z,101262.78
2022-11-29T05:21:45.991Z,101264.53
2022-11-29T05:26:59.717Z,101267.84
2022-11-29T05:32:33.786Z,101280.69
2022-11-29T05:37:50.756Z,101284.91
2022-11-29T05:43:10.599Z,101294.38
2022-11-29T05:48:31.547Z,101290.97
2022-11-29T05:54:08.177Z,101296.06
2022-11-29T05:59:15.218Z,101307.06
2022-11-29T06:04:48.842Z,101305.44
2022-11-29T06:10:01.525Z,101310.50
2022-11-29T06:15:56.666Z,101319.09
2022-11-29T06:21:22.469Z,101325.19
2022-11-29T06:26:46.120Z,101330.28
2022-11-29T06:31:55.719Z,101337.16
2022-11-29T06:37:04.375Z,101340.59
2022-11-29T06:42:08.691Z,101353.41
2022-11-29T06:47:28.264Z,101353.28
2022-11-29T06:52:43.804Z,101362.69
2022-11-29T06:58:08.752Z,101371.97
2022-11-29T07:03:38.470Z,101377.97
2022-11-29T07:08:40.430Z,101381.50
2022-11-29T07:13:42.158Z,101372.78
2022-11-29T07:19:00.191Z,101372.03
2022-11-29T07:24:13.947Z,101393.13
2022-11-29T07:29:37.082Z,101412.84
2022-11-29T07:34:52.948Z,101414.56
2022-11-29T07:40:03.920Z,101420.56
2022-11-29T07:45:18.467Z,101441.06
2022-11-29T07:50:21.286Z,101438.31
2022-11-29T07:55:25.521Z,101440.78
2022-11-29T08:00:27.220Z,101453.00
2022-11-29T08:05:47.969Z,101455.88
2022-11-29T08:10:49.383Z,101446.22
2022-11-29T08:15:50.923Z,101454.75
2022-11-29T08:20:52.296Z,101458.88
2022-11-29T08:25:59.945Z,101461.25
2022-11-29T08:31:03.525Z,101458.25
2022-11-29T08:36:10.314Z,101461.69
2022-11-29T08:41:13.516Z,101467.03
2022-11-29T08:46:18.606Z,101466.88
2022-11-29T08:51:20.599Z,101469.66
2022-11-29T08:57:10.127Z,101476.38
2022-11-29T09:01:43.473Z,101467.91
2022-11-29T09:06:44.875Z,101483.34
2022-11-29T09:11:49.357Z,101493.66
2022-11-29T09:16:51.214Z,101502.59
2022-11-29T09:21:52.673Z,101518.25
2022-11-29T09:26:54.072Z,101522.03
2022-11-29T09:31:55.568Z,101527.81
2022-11-29T09:37:07.090Z,101526.16
2022-11-29T09:42:18.459Z,101537.31
2022-11-29T09:47:41.760Z,101534.56
2022-11-29T09:53:15.682Z,101552.25
2022-11-29T09:58:21.606Z,101545.34
2022-11-29T10:03:29.268Z,101543.47
2022-11-29T10:08:38.668Z,101549.16
2022-11-29T10:13:45.722Z,101557.94
2022-11-29T10:18:51.845Z,101556.25
2022-11-29T10:23:57.679Z,101551.31
2022-11-29T10:28:59.644Z,101543.22
2022-11-29T10:34:09.991Z,101542.97
2022-11-29T10:39:46.669Z,101550.75
2022-11-29T10:44:48.073Z,101551.00
2022-11-29T10:49:49.923Z,101546.84
2022-11-29T10:54:56.566Z,101552.00
2022-11-29T11:00:07.014Z,101546.63
2022-11-29T11:05:18.610Z,101539.31
2022-11-29T11:10:30.810Z,101548.34
2022-11-29T11:15:33.494Z,101537.66
2022-11-29T11:20:39.745Z,101538.47
2022-11-29T11:25:41.185Z,101541.13
2022-11-29T11:30:50.792Z,101542.34
2022-11-29T11:36:07.371Z,101545.25
2022-11-29T11:41:20.635Z,101540.09
2022-11-29T11:46:22.071Z,101549.66
2022-11-29T11:51:25.677Z,101560.38
2022-11-29T11:56:34.764Z,101562.00
2022-11-29T12:01:38.579Z,101562.31
2022-11-29T12:07:00.389Z,101559.44
2022-11-29T12:12:31.092Z,101572.28
2022-11-29T12:17:38.604Z,101573.94
2022-11-29T12:22:48.603Z,101575.09
2022-11-29T12:27:50.869Z,101579.81
2022-11-29T12:33:01.453Z,101588.31
2022-11-29T12:38:32.567Z,101603.00
2022-11-29T12:43:55.329Z,101602.66
2022-11-29T12:49:11.706Z,101608.38
2022-11-29T12:54:16.321Z,101609.75
2022-11-29T12:59:44.602Z,101617.72
2022-11-29T13:04:59.380Z,101623.34
2022-11-29T13:10:22.935Z,101621.44
2022-11-29T13:15:28.991Z,101624.91
2022-11-29T13:20:47.953Z,101633.50
2022-11-29T13:25:54.438Z,101642.88
2022-11-29T13:31:06.205Z,101636.72
2022-11-29T13:36:26.096Z,101641.69
2022-11-29T13:41:55.377Z,101643.81
2022-11-29T13:47:05.678Z,101649.97
2022-11-29T13:52:07.301Z,101652.50
2022-11-29T13:57:09.752Z,101660.00
2022-11-29T14:02:31.229Z,101667.25
2022-11-29T14:07:34.950Z,101677.44
2022-11-29T14:12:56.710Z,101680.84
2022-11-29T14:18:02.312Z,101681.91
2022-11-29T14:23:07.544Z,101680.72
2022-11-29T14:28:14.860Z,101688.25
2022-11-29T14:33:43.757Z,101695.13
2022-11-29T14:38:54.631Z,101687.88
2022-11-29T14:44:20.110Z,101696.16
2022-11-29T14:49:24.501Z,101702.81
2022-11-29T14:54:25.981Z,101709.84
2022-11-29T14:59:50.280Z,101712.38
2022-11-29T15:04:54.791Z,101720.91
2022-11-29T15:10:01.102Z,101719.06
2022-11-29T15:15:33.953Z,101718.50
2022-11-29T15:20:59.085Z,101720.34
2022-11-29T15:26:01.003Z,101721.75
2022-11-29T15:31:06.047Z,101717.44
2022-11-29T15:36:19.717Z,101717.31
2022-11-29T15:41:34.437Z,101727.53
2022-11-29T15:46:36.247Z,101728.84
2022-11-29T15:51:39.365Z,101736.69
2022-11-29T15:56:51.983Z,101737.66
2022-11-29T16:01:55.847Z,101742.72
2022-11-29T16:06:57.763Z,101747.75
2022-11-29T16:12:01.810Z,101754.59
2022-11-29T16:17:05.275Z,101756.44
2022-11-29T16:22:12.508Z,101757.22
2022-11-29T16:27:14.285Z,101748.25
2022-11-29T16:32:42.931Z,101746.59
2022-11-29T16:37:46.605Z,101755.59
2022-11-29T16:43:23.485Z,101756.47
2022-11-29T16:48:27.776Z,101752.63
2022-11-29T16:53:38.063Z,101763.72
2022-11-29T16:59:20.929Z,101771.22
2022-11-29T17:04:02.025Z,101764.38
2022-11-29T17:09:04.297Z,101773.94
2022-11-29T17:14:05.737Z,101768.00
2022-11-29T17:19:11.717Z,101778.22
2022-11-29T17:24:15.754Z,101775.84
2022-11-29T17:29:17.940Z,101779.22
2022-11-29T17:34:19.705Z,101779.22
2022-11-29T17:39:22.574Z,101779.16
2022-11-29T17:44:24.009Z,101787.75
2022-11-29T17:49:25.624Z,101788.72
2022-11-29T17:54:27.014Z,101789.59
2022-11-29T17:59:28.570Z,101795.47
2022-11-29T18:04:30.053Z,101800.81
2022-11-29T18:09:31.412Z,101804.22
2022-11-29T18:14:33.499Z,101806.84
2022-11-29T18:19:34.882Z,101807.66
2022-11-29T18:24:36.237Z,101810.28
2022-11-29T18:29:39.390Z,101817.78
2022-11-29T18:34:40.866Z,101819.63
2022-11-29T18:39:42.360Z,101817.78
2022-11-29T18:44:44.002Z,101816.19
2022-11-29T18:49:45.763Z,101819.63
2022-11-29T18:54:47.559Z,101823.09
2022-11-29T18:59:49.762Z,101827.41
2022-11-29T19:04:53.903Z,101828.28
2022-11-29T19:09:56.358Z,101825.72
2022-11-29T19:15:03.035Z,101828.34
2022-11-29T19:20:05.114Z,101835.13
2022-11-29T19:25:08.581Z,101832.56
2022-11-29T19:30:10.781Z,101844.59
2022-11-29T19:35:14.604Z,101849.47
2022-11-29T19:40:17.637Z,101843.50
2022-11-29T19:45:19.819Z,101838.19
2022-11-29T19:50:25.561Z,101850.22
2022-11-29T19:55:27.126Z,101846.69
2022-11-29T20:00:29.841Z,101842.28
2022-11-29T20:05:31.655Z,101853.41
2022-11-29T20:10:34.348Z,101856.09
2022-11-29T20:15:38.014Z,101855.09
2022-11-29T20:20:42.083Z,101855.97
2022-11-29T20:25:48.739Z,101856.69
2022-11-29T20:30:50.406Z,101860.06
2022-11-29T20:36:04.574Z,101866.16
2022-11-29T20:41:24.771Z,101871.13
2022-11-29T20:46:26.640Z,101867.72
2022-11-29T20:51:45.116Z,101872.06
2022-11-29T20:56:47.024Z,101881.59
2022-11-29T21:01:52.516Z,101878.91
2022-11-29T21:06:53.994Z,101892.47
2022-11-29T21:11:55.713Z,101890.94
2022-11-29T21:16:57.425Z,101882.28
2022-11-29T21:22:10.866Z,101899.53
2022-11-29T21:27:20.995Z,101900.28
2022-11-29T21:32:25.663Z,101901.38
2022-11-29T21:37:29.691Z,101896.31
2022-11-29T21:42:31.189Z,101900.69
2022-11-29T21:47:33.325Z,101901.72
2022-11-29T21:52:34.859Z,101903.50
2022-11-29T21:57:36.628Z,101911.38
2022-11-29T22:02:38.127Z,101914.81
2022-11-29T22:07:41.971Z,101919.13
2022-11-29T22:12:52.239Z,101919.13
2022-11-29T22:17:54.296Z,101933.81
2022-11-29T22:22:58.655Z,101931.25
2022-11-29T22:28:00.426Z,101928.50
2022-11-29T22:33:02.889Z,101924.94
2022-11-29T22:38:04.311Z,101926.50
2022-11-29T22:43:06.166Z,101929.16
2022-11-29T22:48:09.895Z,101939.72
2022-11-29T22:53:14.162Z,101931.28
2022-11-29T22:58:15.584Z,101941.63
2022-11-29T23:03:19.698Z,101931.91
2022-11-29T23:08:26.412Z,101943.38
2022-11-29T23:13:27.940Z,101948.50
2022-11-29T23:18:30.808Z,101954.56
2022-11-29T23:23:32.612Z,101955.03
2022-11-29T23:28:35.534Z,101954.22
2022-11-29T23:33:38.268Z,101952.22
2022-11-29T23:38:43.194Z,101950.66
2022-11-29T23:43:47.794Z,101959.31
2022-11-29T23:48:51.387Z,101965.09
2022-11-29T23:53:53.739Z,101958.28
2022-11-29T23:58:55.846Z,101963.91
